• Join FlightAware (Why Join?)
  • Login
  • US Flag 
11:10PM EDT


 

Airport Tracker/Info


-or-


 

Live Flight TrackerFlight Track Log ✈ N1560T ✈ 14-Feb-2014 ✈ KLSE - KBTR

Flight Track Log - Related Links

Times and Time Zones

All times are in EST time to prevent confusion due to time zone crossing. See the N1560T flight status page for this flight to view local times or setup timezone preferences in your user account.

Time Position Orientation Groundspeed Altitude Reporting Facility
EST Latitude Longitude Course Direction KTS MPH feet Rate Location/Type
11:26AM 43.9258 -91.2553 180° South 89 102 3,300  Level Minneapolis Center
11:27AM 43.8858 -91.2269 153° Southeast 183 211 4,700 1,560 Climbing Minneapolis Center
11:28AM 43.8339 -91.2261 179° South 180 207 6,500 1,620 Climbing Minneapolis Center
11:29AM 43.7825 -91.2278 181° South 177 204 8,100 1,500 Climbing Minneapolis Center
11:30AM 43.7300 -91.2275 180° South 181 208 9,700 1,440 Climbing Minneapolis Center
11:31AM 43.5237 -91.2532 180° South  Level Estimated
11:31AM 43.6808 -91.2267 179° South 182 209 11,100  Level Minneapolis Center
11:32AM 43.6269 -91.2264 180° South 186 214 12,600 1,500 Climbing Minneapolis Center
11:33AM 43.5731 -91.2264 180° South 185 213 14,200 1,320 Climbing Minneapolis Center
11:34AM 43.5175 -91.2256 179° South 190 219 15,400 1,260 Climbing Minneapolis Center
11:35AM 43.4572 -91.2250 180° South 204 235 16,800 1,200 Climbing Minneapolis Center
11:36AM 43.4039 -91.2247 180° South 201 231 17,900 960 Climbing Minneapolis Center
11:37AM 43.3533 -91.2269 182° South 201 231 18,800 840 Climbing Chicago Center
11:38AM 43.2947 -91.2275 180° South 207 238 19,600 780 Climbing Chicago Center
11:39AM 43.2361 -91.2267 179° South 210 242 20,500 780 Climbing Chicago Center
11:40AM 43.1778 -91.2258 179° South 210 242 21,300 720 Climbing Chicago Center
11:41AM 43.1069 -91.2253 180° South 211 243 22,100 660 Climbing Chicago Center
11:42AM 43.0467 -91.2253 180° South 215 247 22,700 420 Climbing Chicago Center
11:43AM 42.9861 -91.2247 180° South 218 251 23,000 120 Climbing Chicago Center
11:44AM 42.9208 -91.2242 180° South 232 267 23,000  Level Chicago Center
11:45AM 42.8539 -91.2236 180° South 239 275 23,000  Level Chicago Center
11:46AM 42.7856 -91.2228 179° South 244 281 23,000  Level Chicago Center
11:47AM 42.7175 -91.2222 180° South 244 281 23,000  Level Chicago Center
11:48AM 42.6506 -91.2208 179° South 242 278 23,000  Level Chicago Center
11:50AM 42.5711 -91.2219 181° South 237 273 23,000  Level Chicago Center
11:51AM 42.5058 -91.2206 179° South 236 272 23,000  Level Chicago Center
11:52AM 42.4417 -91.2203 180° South 232 267 23,000  Level Chicago Center
11:53AM 42.3758 -91.2178 178° South 235 270 23,000  Level Chicago Center
11:54AM 42.3092 -91.2197 181° South 239 275 23,000  Level Chicago Center
11:55AM 42.2436 -91.2192 180° South 237 273 23,000  Level Chicago Center
11:56AM 42.1647 -91.2194 180° South 238 274 23,000  Level Chicago Center
11:57AM 42.0981 -91.2192 180° South 238 274 23,000  Level Chicago Center
11:58AM 42.0339 -91.2181 179° South 232 267 23,000  Level Chicago Center
11:59AM 41.9708 -91.2183 180° South 228 262 23,000  Level Chicago Center
12:00PM 41.9089 -91.2172 179° South 224 258 23,000  Level Chicago Center
12:01PM 41.8447 -91.2169 180° South 230 265 23,000  Level Chicago Center
12:02PM 41.7803 -91.2169 180° South 233 268 23,000  Level Chicago Center
12:03PM 41.7044 -91.2153 179° South 228 262 23,000  Level Chicago Center
12:04PM 41.6394 -91.2158 180° South 233 268 23,000  Level Chicago Center
12:05PM 41.5767 -91.2156 180° South 228 262 23,000  Level Chicago Center
12:06PM 41.5147 -91.2139 179° South 230 265 23,000  Level Chicago Center
12:07PM 41.4497 -91.2136 180° South 231 266 23,000  Level Chicago Center
12:08PM 41.3733 -91.2128 180° South 230 265 23,000  Level Chicago Center
12:09PM 41.3106 -91.2125 180° South 226 260 23,000  Level Chicago Center
12:10PM 41.2475 -91.2125 180° South 228 262 23,000  Level Chicago Center
12:11PM 41.1844 -91.2117 179° South 226 260 23,000  Level Chicago Center
12:12PM 41.1219 -91.2108 179° South 226 260 23,000  Level Chicago Center
12:13PM 41.0583 -91.1789 159° South 245 282 23,000  Level Chicago Center
12:14PM 40.9969 -91.1444 157° South 243 280 23,000 -360 Level Chicago Center
12:15PM 40.9186 -91.1033 158° South 250 288 22,300 -540 Descending Chicago Center
12:16PM 40.8511 -91.0686 159° South 257 296 22,000 -180 Descending Chicago Center
12:17PM 40.7844 -91.0525 170° South 249 287 22,000  Level Chicago Center
12:18PM 40.7194 -91.0550 182° South 238 274 22,000  Level Chicago Center
12:19PM 40.6567 -91.0556 180° South 231 266 22,000  Level Chicago Center
12:20PM 40.5936 -91.0567 181° South 228 262 22,000  Level Chicago Center
12:21PM 40.5192 -91.0569 180° South 224 258 22,000  Level Chicago Center
12:22PM 40.4572 -91.0581 181° South 222 255 22,000  Level Chicago Center
12:23PM 40.3939 -91.0575 180° South 226 260 22,000  Level Chicago Center
12:24PM 40.3564 -91.0569 179° South 222 255 22,000  Level Kansas City Center
12:25PM 40.2917 -91.0586 181° South 223 257 22,000  Level Kansas City Center
12:26PM 40.2292 -91.0589 180° South 224 258 22,000  Level Kansas City Center
12:27PM 40.1672 -91.0600 181° South 224 258 22,000  Level Kansas City Center
12:28PM 40.1028 -91.0600 180° South 229 264 22,000  Level Kansas City Center
12:29PM 40.0419 -91.0614 181° South 223 257 22,000  Level Kansas City Center
12:30PM 39.9692 -91.0619 180° South 219 252 22,000  Level Kansas City Center
12:31PM 39.9100 -91.0628 181° South 217 250 22,000  Level Kansas City Center
12:32PM 39.8500 -91.0628 180° South 216 249 22,000  Level Kansas City Center
12:33PM 39.7911 -91.0653 182° South 214 246 22,000  Level Kansas City Center
12:34PM 39.7278 -91.0653 180° South 212 244 22,000  Level Kansas City Center
12:35PM 39.6683 -91.0661 181° South 213 245 22,000  Level Kansas City Center
12:36PM 39.6108 -91.0658 180° South 210 242 22,000  Level Kansas City Center
12:38PM 39.5519 -91.0681 182° South 209 241 22,000  Level Kansas City Center
12:39PM 39.4819 -91.0672 179° South 211 243 22,000  Level Kansas City Center
12:40PM 39.4231 -91.0678 180° South 212 244 22,000  Level Kansas City Center
12:41PM 39.3633 -91.0692 181° South 214 246 22,000  Level Kansas City Center
12:42PM 39.3028 -91.0700 181° South 217 250 22,000  Level Kansas City Center
12:43PM 39.2433 -91.0700 180° South 215 247 22,000  Level Kansas City Center
12:44PM 39.1839 -91.0689 179° South 214 246 22,000  Level Kansas City Center
12:45PM 39.1108 -91.0706 181° South 219 252 22,000  Level Kansas City Center
12:46PM 39.0503 -91.0719 181° South 220 253 22,000  Level Kansas City Center
12:47PM 38.9897 -91.0719 180° South 218 251 22,000  Level Kansas City Center
12:48PM 38.9306 -91.0722 180° South 216 249 22,000  Level Kansas City Center
12:49PM 38.8706 -91.0728 180° South 216 249 22,000  Level Kansas City Center
12:50PM 38.8000 -91.0744 181° South 213 245 22,000  Level Kansas City Center
12:51PM 38.7408 -91.0742 180° South 213 245 22,000  Level Kansas City Center
12:52PM 38.6825 -91.0750 181° South 211 243 22,000  Level Kansas City Center
12:53PM 38.6250 -91.0758 181° South 209 241 22,000  Level Kansas City Center
12:54PM 38.5692 -91.0758 180° South 204 235 22,000  Level Kansas City Center
12:55PM 38.5008 -91.0769 181° South 204 235 22,000  Level Kansas City Center
12:56PM 38.4439 -91.0775 180° South 205 236 22,000  Level Kansas City Center
12:57PM 38.3869 -91.0783 181° South 205 236 22,000  Level Kansas City Center
12:58PM 38.3300 -91.0797 181° South 205 236 22,000  Level Kansas City Center
12:59PM 38.2747 -91.0792 180° South 202 232 22,000  Level Kansas City Center
01:00PM 38.2186 -91.0794 180° South 202 232 22,000  Level Kansas City Center
01:01PM 38.1508 -91.0800 180° South 202 232 22,000  Level Kansas City Center
01:02PM 38.0925 -91.0814 181° South 199 229 22,000  Level Kansas City Center
01:03PM 38.0356 -91.0817 180° South 201 231 22,000  Level Kansas City Center
01:04PM 37.9792 -91.0817 180° South 202 232 22,000  Level Kansas City Center
01:05PM 37.9225 -91.0825 181° South 203 234 22,000  Level Kansas City Center
01:06PM 37.8661 -91.0836 181° South 201 231 22,000  Level Kansas City Center
01:08PM 37.8089 -91.0847 181° South 203 234 22,000  Level Kansas City Center
01:09PM 37.7528 -91.0847 180° South 202 232 22,000  Level Kansas City Center
01:10PM 37.6856 -91.0850 180° South 199 229 22,000  Level Kansas City Center
01:11PM 37.6300 -91.0864 181° South 199 229 22,000  Level Kansas City Center
01:12PM 37.5753 -91.0872 181° South 197 227 22,000  Level Kansas City Center
01:13PM 37.5208 -91.0878 180° South 194 223 22,000  Level Kansas City Center
01:14PM 37.4672 -91.0875 180° South 192 221 22,000  Level Kansas City Center
01:15PM 37.4128 -91.0883 181° South 193 222 22,000  Level Kansas City Center
01:16PM 37.3597 -91.0886 180° South 192 221 22,000  Level Kansas City Center
01:17PM 37.3053 -91.0889 180° South 192 221 22,000  Level Kansas City Center
01:18PM 37.2403 -91.0881 179° South 193 222 22,000  Level Kansas City Center
01:19PM 37.1842 -91.0900 182° South 197 227 22,000  Level Kansas City Center
01:20PM 37.1261 -91.0914 181° South 202 232 22,000  Level Kansas City Center
01:21PM 37.0689 -91.0922 181° South 200 230 22,000  Level Kansas City Center
01:22PM 37.0147 -91.0914 179° South 196 226 22,000  Level Kansas City Center
01:23PM 36.9608 -91.0922 181° South 195 224 22,000  Level Kansas City Center
01:24PM 36.9044 -91.0936 181° South 199 229 22,000  Level Kansas City Center
01:25PM 36.8489 -91.0925 179° South 200 230 22,000  Level Kansas City Center
01:26PM 36.7786 -91.0944 181° South 206 237 22,000  Level Memphis Center
01:27PM 36.7225 -91.0953 181° South 204 235 22,000  Level Memphis Center
01:28PM 36.6547 -91.0958 180° South 204 235 22,000  Level Memphis Center
01:29PM 36.5981 -91.0956 180° South 204 235 22,000  Level Memphis Center
01:30PM 36.5403 -91.0958 180° South 204 235 22,000  Level Memphis Center
01:31PM 36.4822 -91.0969 181° South 207 238 22,000  Level Memphis Center
01:32PM 36.4250 -91.0972 180° South 206 237 22,000  Level Memphis Center
01:34PM 36.3556 -91.0981 181° South 207 238 22,000  Level Memphis Center
01:35PM 36.2958 -91.0992 181° South 212 244 22,000  Level Memphis Center
01:36PM 36.2378 -91.0992 180° South 211 243 22,000  Level Memphis Center
01:37PM 36.1794 -91.0994 180° South 210 242 22,000  Level Memphis Center
01:38PM 36.1236 -91.1006 181° South 205 236 22,000  Level Memphis Center
01:39PM 36.0661 -91.1008 180° South 206 237 22,000  Level Memphis Center
01:40PM 35.9961 -91.1017 181° South 207 238 22,000  Level Memphis Center
01:41PM 35.9364 -91.1022 180° South 210 242 22,000  Level Memphis Center
01:42PM 35.8778 -91.1033 181° South 211 243 22,000  Level Memphis Center
01:43PM 35.8189 -91.1028 180° South 212 244 22,000  Level Memphis Center
01:44PM 35.7592 -91.1036 181° South 212 244 22,000  Level Memphis Center
01:45PM 35.7000 -91.1039 180° South 213 245 22,000  Level Memphis Center
01:46PM 35.6342 -91.1050 181° South 214 246 22,000  Level Memphis Center
01:47PM 35.5725 -91.1056 180° South 217 250 22,000  Level Memphis Center
01:48PM 35.5122 -91.1067 181° South 216 249 22,000  Level Memphis Center
01:49PM 35.4414 -91.1064 180° South 215 247 22,000  Level Memphis Center
01:50PM 35.3803 -91.1078 181° South 214 246 22,000  Level Memphis Center
01:51PM 35.3200 -91.1078 180° South 215 247 22,000  Level Memphis Center
01:52PM 35.2597 -91.1083 180° South 215 247 22,000  Level Memphis Center
01:53PM 35.1992 -91.1086 180° South 217 250 22,000  Level Memphis Center
01:54PM 35.1378 -91.1092 180° South 217 250 22,000  Level Memphis Center
01:55PM 35.0775 -91.1106 181° South 216 249 22,000  Level Memphis Center
01:56PM 35.0081 -91.1111 180° South 213 245 22,000  Level Memphis Center
01:57PM 34.9492 -91.1114 180° South 211 243 22,000  Level Memphis Center
01:58PM 34.8894 -91.1122 181° South 212 244 22,000  Level Memphis Center
01:59PM 34.8289 -91.1122 180° South 214 246 22,000  Level Memphis Center
02:00PM 34.7694 -91.1128 180° South 213 245 22,000  Level Memphis Center
02:01PM 34.7008 -91.1136 181° South 210 242 22,000  Level Memphis Center
02:03PM 34.6419 -91.1150 181° South 210 242 22,000  Level Memphis Center
02:04PM 34.5806 -91.1142 179° South 215 247 22,000  Level Memphis Center
02:05PM 34.5189 -91.1147 180° South 218 251 22,000  Level Memphis Center
02:06PM 34.4569 -91.1153 180° South 220 253 22,000  Level Memphis Center
02:07PM 34.3950 -91.1161 181° South 220 253 22,000  Level Memphis Center
02:08PM 34.3333 -91.1228 185° South 220 253 22,000  Level Memphis Center
02:09PM 34.2608 -91.1225 180° South 221 254 22,000  Level Memphis Center
02:10PM 34.1986 -91.1158 175° South 222 255 22,000  Level Memphis Center
02:11PM 34.1381 -91.1092 175° South 219 252 22,000  Level Memphis Center
02:12PM 34.0778 -91.1019 174° South 216 249 22,000  Level Memphis Center
02:13PM 34.0169 -91.0975 177° South 217 250 22,000  Level Memphis Center
02:14PM 33.9572 -91.0947 178° South 213 245 22,000  Level Memphis Center
02:15PM 33.8997 -91.0975 182° South 207 238 22,000  Level Memphis Center
02:16PM 33.8314 -91.0978 180° South 208 239 22,000  Level Memphis Center
02:17PM 33.7728 -91.1003 182° South 212 244 22,000  Level Memphis Center
02:18PM 33.7139 -91.1006 180° South 212 244 22,100  Climbing Memphis Center
02:19PM 33.6544 -91.1006 180° South 214 246 22,000 -60 Descending Memphis Center
02:20PM 33.5978 -91.1025 182° South 208 239 22,000  Level Memphis Center
02:21PM 33.5358 -91.1022 180° South 216 249 22,000  Level Memphis Center
02:22PM 33.4639 -91.1047 182° South 218 251 22,000  Level Memphis Center
02:23PM 33.4050 -91.1056 181° South 215 247 22,000  Level Memphis Center
02:24PM 33.3519 -91.1250 197° South 205 236 22,000  Level Memphis Center
02:25PM 33.3042 -91.1556 208° Southwest 197 227 22,000  Level Memphis Center
02:26PM 33.2447 -91.1703 192° South 220 253 22,000  Level Memphis Center
02:27PM 33.1614 -91.1500 168° South 252 290 22,000  Level Memphis Center
02:28PM 33.0942 -91.1447 176° South 249 287 22,000  Level Memphis Center
02:29PM 33.0250 -91.1428 179° South 248 285 22,000  Level Memphis Center
02:30PM 32.9547 -91.1425 180° South 253 291 22,000  Level Memphis Center
02:31PM 32.8842 -91.1428 180° South 254 292 22,000  Level Memphis Center
02:32PM 32.8017 -91.1428 180° South 250 288 22,000  Level Memphis Center
02:34PM 32.7314 -91.1436 181° South 252 290 22,000  Level Memphis Center
02:35PM 32.6647 -91.1436 180° South 247 284 22,000  Level Memphis Center
02:36PM 32.5942 -91.1436 180° South 249 287 22,000  Level Memphis Center
02:37PM 32.5225 -91.1442 180° South 254 292 22,000 -120 Level Memphis Center
02:38PM 32.4342 -91.1450 180° South 260 299 21,800 -420 Descending Memphis Center
02:39PM 32.3619 -91.1444 180° South 261 300 21,200 -540 Descending Memphis Center
02:39PM 32.3253 -91.1442 180° South 245 282 20,900 -720 Descending Houston Center
02:40PM 32.2439 -91.1450 180° South 244 281 20,000 -780 Descending Houston Center
02:41PM 32.1758 -91.1464 181° South 245 282 19,400 -660 Descending Houston Center
02:42PM 32.1072 -91.1450 179° South 247 284 18,700 -720 Descending Houston Center
02:43PM 32.0364 -91.1456 180° South 253 291 18,000 -720 Descending Houston Center
02:45PM 31.9667 -91.1464 181° South 252 290 17,300 -720 Descending Houston Center
02:46PM 31.8978 -91.1467 180° South 250 288 16,600 -660 Descending Houston Center
02:47PM 31.8172 -91.1464 180° South 244 281 16,000 -300 Descending Houston Center
02:48PM 31.7539 -91.1464 180° South 230 265 16,000 -60 Level Houston Center
02:49PM 31.6922 -91.1472 181° South 224 258 15,900 -480 Descending Houston Center
02:50PM 31.6264 -91.1481 181° South 233 268 15,100 -780 Descending Houston Center
02:51PM 31.5578 -91.1478 180° South 244 281 14,300 -780 Descending Houston Center
02:52PM 31.4883 -91.1483 180° South 248 285 13,500 -900 Descending Houston Center
02:53PM 31.4092 -91.1478 180° South 240 276 12,500 -900 Descending Houston Center
02:54PM 31.3450 -91.1486 181° South 233 268 11,700 -780 Descending Houston Center
02:55PM 31.2800 -91.1483 180° South 234 269 10,900 -840 Descending Houston Center
02:56PM 31.2106 -91.1492 181° South 232 267 10,000 -840 Descending Houston Center
02:57PM 31.1472 -91.1489 180° South 230 265 9,200 -780 Descending Houston Center
02:58PM 31.0850 -91.1489 180° South 227 261 8,400 -780 Descending Houston Center
02:59PM 31.0208 -91.1492 180° South 228 262 7,600 -780 Descending Houston Center
03:00PM 30.9592 -91.1183 157° South 241 277 6,800 -840 Descending Houston Center
03:01PM 30.9183 -91.0506 125° Southeast 242 278 5,900 -780 Descending Houston Center
03:02PM 30.8853 -90.9922 123° Southeast 223 257 5,300 -600 Descending Houston Center
03:03PM 30.8592 -90.9392 120° Southeast 197 227 4,700 -660 Descending Houston Center
03:04PM 30.8328 -90.8861 120° Southeast 192 221 4,000 -720 Descending Houston Center
03:05PM 30.7956 -90.8617 151° Southeast 183 211 3,300 -540 Descending Houston Center
03:06PM 30.7597 -90.9006 223° Southwest 159 183 2,900 -360 Descending Houston Center
03:07PM 30.7342 -90.9292 224° Southwest 151 174 2,600 -300 Descending Houston Center
03:09PM 30.6801 -90.9800 219° Southwest  Level FlightAware Approximate
03:16PM 30.5167 -91.1333 216° Southwest  Level FlightAware Approximate
03:17PM 30.5329 -91.1499 216° Southwest  Level Estimated
03:18PM 30.5329 -91.1499 216° Southwest  Level Estimated
03:19PM 30.5329 -91.1499 216° Southwest  Level Estimated
03:20PM 30.5329 -91.1499 216° Southwest  Level Estimated
03:21PM 30.5329 -91.1499 216° Southwest  Level Estimated
03:22PM 30.5329 -91.1499 216° Southwest  Level Estimated
03:23PM 30.5329 -91.1499 216° Southwest  Level Estimated